createdAt,value
2022-08-09T00:00:23.360Z,22.74
2022-08-09T00:03:18.863Z,22.78
2022-08-09T00:06:18.065Z,22.74
2022-08-09T00:08:48.526Z,22.66
2022-08-09T00:11:25.096Z,22.37
2022-08-09T00:13:56.171Z,22.80
2022-08-09T00:16:26.453Z,22.96
2022-08-09T00:19:10.269Z,22.53
2022-08-09T00:21:55.613Z,22.58
2022-08-09T00:24:24.995Z,22.54
2022-08-09T00:26:57.641Z,22.55
2022-08-09T00:30:10.289Z,22.47
2022-08-09T00:32:26.808Z,22.72
2022-08-09T00:34:56.504Z,22.85
2022-08-09T00:37:25.727Z,22.76
2022-08-09T00:40:13.597Z,22.91
2022-08-09T00:44:16.318Z,22.62
2022-08-09T00:45:35.629Z,22.58
2022-08-09T00:48:05.898Z,22.51
2022-08-09T00:50:34.012Z,22.92
2022-08-09T00:53:10.550Z,22.60
2022-08-09T00:56:05.636Z,22.68
2022-08-09T00:58:31.672Z,22.70
2022-08-09T01:01:00.227Z,23.03
2022-08-09T01:03:40.701Z,22.31
2022-08-09T01:06:19.236Z,22.48
2022-08-09T01:08:54.588Z,22.29
2022-08-09T01:11:33.921Z,22.17
2022-08-09T01:14:11.704Z,22.24
2022-08-09T01:16:47.106Z,22.38
2022-08-09T01:19:40.051Z,21.95
2022-08-09T01:22:29.330Z,22.50
2022-08-09T01:25:03.514Z,22.72
2022-08-09T01:27:34.333Z,23.07
2022-08-09T01:30:06.415Z,23.14
2022-08-09T01:32:45.502Z,22.96
2022-08-09T01:35:28.807Z,22.86
2022-08-09T01:38:15.131Z,22.75
2022-08-09T01:40:52.692Z,22.97
2022-08-09T01:43:50.023Z,22.71
2022-08-09T01:46:25.117Z,23.11
2022-08-09T01:49:10.631Z,23.24
2022-08-09T01:51:53.049Z,23.18
2022-08-09T01:54:24.886Z,24.03
2022-08-09T01:56:53.716Z,23.91
2022-08-09T01:59:24.386Z,23.74
2022-08-09T02:02:01.783Z,23.92
2022-08-09T02:04:31.191Z,24.04
2022-08-09T02:07:18.006Z,23.36
2022-08-09T02:10:05.847Z,23.71
2022-08-09T02:12:36.309Z,23.90
2022-08-09T02:15:08.277Z,23.44
2022-08-09T02:18:09.724Z,23.76
2022-08-09T02:20:32.677Z,24.10
2022-08-09T02:23:06.987Z,23.98
2022-08-09T02:25:42.708Z,24.12
2022-08-09T02:28:20.404Z,23.56
2022-08-09T02:30:55.454Z,23.51
2022-08-09T02:33:58.229Z,23.43
2022-08-09T02:36:17.477Z,24.04
2022-08-09T02:38:49.798Z,24.04
2022-08-09T02:41:21.105Z,24.15
2022-08-09T02:43:54.956Z,24.40
2022-08-09T02:46:28.640Z,24.07
2022-08-09T02:49:01.702Z,24.25
2022-08-09T02:51:40.255Z,24.58
2022-08-09T02:54:12.465Z,24.55
2022-08-09T02:56:48.851Z,24.41
2022-08-09T02:59:26.564Z,24.46
2022-08-09T03:02:12.256Z,24.38
2022-08-09T03:04:45.726Z,25.20
2022-08-09T03:07:14.682Z,25.22
2022-08-09T03:09:54.381Z,24.92
2022-08-09T03:12:25.934Z,25.13
2022-08-09T03:14:55.294Z,24.97
2022-08-09T03:17:26.523Z,24.92
2022-08-09T03:20:02.899Z,24.78
2022-08-09T03:22:32.658Z,25.01
2022-08-09T03:25:22.018Z,24.93
2022-08-09T03:27:52.823Z,24.56
2022-08-09T03:30:29.946Z,25.11
2022-08-09T03:33:12.828Z,24.68
2022-08-09T03:36:15.879Z,24.44
2022-08-09T03:38:41.854Z,24.69
2022-08-09T03:41:14.615Z,24.42
2022-08-09T03:44:03.454Z,24.53
2022-08-09T03:46:33.856Z,24.55
2022-08-09T03:49:08.057Z,24.78
2022-08-09T03:51:55.814Z,24.90
2022-08-09T03:54:29.615Z,24.72
2022-08-09T03:57:01.553Z,24.60
2022-08-09T03:59:42.934Z,24.77
2022-08-09T04:02:26.681Z,24.67
2022-08-09T04:04:58.972Z,24.37
2022-08-09T04:07:33.727Z,24.33
2022-08-09T04:10:20.444Z,23.86
2022-08-09T04:12:51.453Z,23.01
2022-08-09T04:15:52.326Z,22.92
2022-08-09T04:18:16.749Z,22.66
2022-08-09T04:20:48.699Z,22.42
2022-08-09T04:23:17.894Z,21.96
2022-08-09T04:25:52.953Z,21.30
2022-08-09T04:28:33.260Z,21.19
2022-08-09T04:31:09.259Z,20.81
2022-08-09T04:33:52.924Z,20.56
2022-08-09T04:36:27.709Z,20.48
2022-08-09T04:38:57.956Z,19.75
2022-08-09T04:41:32.264Z,19.56
2022-08-09T04:44:05.749Z,19.32
2022-08-09T04:46:56.859Z,19.03
2022-08-09T04:49:40.448Z,18.11
2022-08-09T04:52:27.322Z,17.71
2022-08-09T04:54:56.918Z,17.88
2022-08-09T04:57:25.381Z,17.36
2022-08-09T04:59:55.314Z,16.93
2022-08-09T05:02:27.199Z,16.49
2022-08-09T05:04:58.858Z,16.11
2022-08-09T05:07:39.642Z,15.76
2022-08-09T05:10:09.748Z,14.82
2022-08-09T05:12:37.857Z,14.91
2022-08-09T05:15:11.635Z,14.47
2022-08-09T05:18:50.948Z,13.59
2022-08-09T05:20:41.564Z,13.25
2022-08-09T05:23:54.237Z,13.29
2022-08-09T05:26:02.700Z,13.02
2022-08-09T05:28:30.888Z,12.60
2022-08-09T05:30:59.019Z,11.96
2022-08-09T05:33:32.975Z,11.58
2022-08-09T05:36:04.148Z,10.93
2022-08-09T05:38:39.081Z,10.35
2022-08-09T05:41:12.675Z,10.25
2022-08-09T05:43:45.270Z,10.20
2022-08-09T05:46:17.626Z,9.70
2022-08-09T05:48:48.613Z,9.75
2022-08-09T05:51:42.462Z,9.53
2022-08-09T05:54:15.515Z,10.21
2022-08-09T05:56:54.501Z,10.69
2022-08-09T05:59:23.787Z,10.86
2022-08-09T06:01:58.885Z,10.31
2022-08-09T06:04:34.983Z,9.55
2022-08-09T06:07:03.782Z,8.75
2022-08-09T06:09:54.537Z,8.46
2022-08-09T06:12:21.874Z,7.99
2022-08-09T06:14:54.921Z,7.35
2022-08-09T06:17:23.265Z,7.17
2022-08-09T06:19:51.520Z,7.46
2022-08-09T06:22:23.576Z,7.78
2022-08-09T06:24:58.511Z,6.98
2022-08-09T06:27:43.160Z,6.33
2022-08-09T06:30:16.218Z,7.93
2022-08-09T06:32:59.134Z,7.88
2022-08-09T06:35:55.960Z,8.53
2022-08-09T06:38:17.998Z,9.27
2022-08-09T06:40:48.916Z,8.62
2022-08-09T06:43:23.585Z,7.73
2022-08-09T06:46:06.707Z,7.04
2022-08-09T06:48:42.716Z,6.26
2022-08-09T06:51:11.403Z,6.29
2022-08-09T06:53:39.995Z,6.13
2022-08-09T06:56:10.768Z,5.85
2022-08-09T07:00:46.672Z,5.60
2022-08-09T07:01:51.900Z,5.08
2022-08-09T07:04:19.712Z,5.78
2022-08-09T07:06:48.359Z,6.73
2022-08-09T07:09:55.438Z,6.96
2022-08-09T07:12:13.698Z,6.44
2022-08-09T07:14:50.718Z,5.36
2022-08-09T07:17:20.233Z,4.70
2022-08-09T07:19:50.964Z,4.15
2022-08-09T07:22:34.946Z,3.62
2022-08-09T07:25:05.378Z,3.34
2022-08-09T07:27:43.184Z,3.70
2022-08-09T07:30:25.294Z,4.23
2022-08-09T07:32:55.041Z,3.62
2022-08-09T07:35:25.675Z,2.77
2022-08-09T07:37:54.154Z,3.96
2022-08-09T07:40:37.195Z,5.36
2022-08-09T07:43:18.502Z,5.28
2022-08-09T07:45:47.208Z,4.75
2022-08-09T07:48:28.605Z,3.52
2022-08-09T07:51:10.215Z,2.79
2022-08-09T07:54:05.240Z,1.38
2022-08-09T07:56:45.102Z,2.02
2022-08-09T07:59:33.676Z,1.81
2022-08-09T08:02:09.382Z,1.99
2022-08-09T08:04:38.983Z,2.35
2022-08-09T08:07:15.598Z,3.34
2022-08-09T08:10:07.938Z,4.42
2022-08-09T08:12:42.938Z,3.78
2022-08-09T08:15:16.626Z,3.17
2022-08-09T08:17:54.229Z,3.01
2022-08-09T08:20:29.421Z,2.64
2022-08-09T08:23:06.940Z,3.87
2022-08-09T08:25:48.359Z,4.66
2022-08-09T08:28:26.061Z,4.98
2022-08-09T08:31:14.164Z,5.67
2022-08-09T08:33:52.662Z,4.81
2022-08-09T08:36:29.781Z,4.13
2022-08-09T08:38:59.750Z,4.50
2022-08-09T08:41:51.019Z,5.65
2022-08-09T08:44:23.235Z,5.80
2022-08-09T08:47:04.680Z,5.21
2022-08-09T08:49:48.404Z,5.04
2022-08-09T08:55:07.875Z,2.45
2022-08-09T08:57:37.641Z,1.75
2022-08-09T09:00:17.236Z,1.47
2022-08-09T09:03:08.114Z,1.81
2022-08-09T09:05:59.066Z,2.62
2022-08-09T09:08:31.825Z,3.79
2022-08-09T09:11:03.961Z,4.53
2022-08-09T09:13:47.433Z,4.33
2022-08-09T09:16:30.515Z,4.67
2022-08-09T09:19:37.389Z,4.68
2022-08-09T09:21:58.310Z,5.18
2022-08-09T09:24:28.980Z,5.06
2022-08-09T09:26:58.050Z,4.98
2022-08-09T09:29:45.945Z,3.70
2022-08-09T09:32:34.716Z,3.14
2022-08-09T09:35:09.061Z,2.65
2022-08-09T09:37:40.677Z,2.50
2022-08-09T09:40:11.650Z,2.05
2022-08-09T09:42:46.106Z,2.22
2022-08-09T09:45:26.864Z,2.83
2022-08-09T09:47:59.594Z,2.68
2022-08-09T09:50:49.768Z,4.94
2022-08-09T09:53:25.065Z,5.48
2022-08-09T09:56:30.866Z,3.83
2022-08-09T09:58:59.336Z,3.21
2022-08-09T10:01:31.374Z,3.68
2022-08-09T10:04:15.966Z,3.62
2022-08-09T10:06:52.102Z,2.78
2022-08-09T10:09:24.041Z,1.67
2022-08-09T10:12:14.599Z,0.28
2022-08-09T10:14:48.771Z,0.05
2022-08-09T10:17:50.586Z,0.19
2022-08-09T10:20:15.109Z,0.31
2022-08-09T10:22:45.344Z,0.00
2022-08-09T10:25:15.331Z,0.00
2022-08-09T10:27:55.943Z,0.00
2022-08-09T10:34:07.656Z,1.16
2022-08-09T10:36:05.514Z,1.28
2022-08-09T10:38:56.252Z,0.49
2022-08-09T10:41:28.432Z,0.01
2022-08-09T10:44:01.397Z,0.14
2022-08-09T10:46:57.313Z,0.53
2022-08-09T10:49:42.761Z,1.77
2022-08-09T10:52:36.344Z,2.82
2022-08-09T10:55:27.790Z,3.17
2022-08-09T10:57:58.645Z,4.40
2022-08-09T11:00:37.267Z,5.08
2022-08-09T11:03:27.986Z,5.34
2022-08-09T11:06:22.726Z,6.58
2022-08-09T11:08:53.496Z,5.14
2022-08-09T11:11:24.608Z,2.89
2022-08-09T11:14:31.829Z,2.45
2022-08-09T11:17:00.563Z,2.19
2022-08-09T11:20:11.184Z,1.39
2022-08-09T11:23:01.104Z,3.70
2022-08-09T11:25:47.111Z,4.79
2022-08-09T11:28:56.254Z,4.71
2022-08-09T11:31:50.485Z,5.47
2022-08-09T11:34:32.273Z,5.80
2022-08-09T11:37:01.625Z,5.36
2022-08-09T11:39:37.923Z,4.99
2022-08-09T11:42:14.952Z,5.04
2022-08-09T11:44:48.554Z,5.66
2022-08-09T11:47:18.501Z,6.68
2022-08-09T11:50:53.619Z,7.32
2022-08-09T11:53:58.593Z,8.50
2022-08-09T11:56:41.572Z,8.68
2022-08-09T11:59:14.249Z,9.03
2022-08-09T12:02:16.415Z,7.88
2022-08-09T12:04:38.052Z,8.28
2022-08-09T12:07:07.929Z,9.61
2022-08-09T12:09:37.400Z,9.81
2022-08-09T12:12:13.249Z,9.63
2022-08-09T12:15:04.213Z,9.91
2022-08-09T12:17:44.494Z,10.12
2022-08-09T12:20:21.793Z,9.59
2022-08-09T12:22:56.075Z,8.99
2022-08-09T12:25:37.711Z,9.27
2022-08-09T12:29:11.529Z,8.58
2022-08-09T12:31:01.557Z,8.98
2022-08-09T12:33:35.281Z,9.16
2022-08-09T12:36:15.467Z,9.53
2022-08-09T12:38:56.276Z,9.20
2022-08-09T12:41:29.274Z,9.41
2022-08-09T12:44:05.283Z,9.21
2022-08-09T12:46:36.257Z,9.09
2022-08-09T12:49:04.926Z,8.95
2022-08-09T12:52:01.233Z,8.91
2022-08-09T12:54:23.980Z,8.99
2022-08-09T12:56:54.404Z,9.41
2022-08-09T12:59:40.047Z,9.75
2022-08-09T13:02:15.168Z,9.61
2022-08-09T13:04:43.464Z,9.43
2022-08-09T13:07:19.729Z,10.36
2022-08-09T13:10:02.940Z,10.67
2022-08-09T13:12:32.274Z,11.83
2022-08-09T13:15:07.121Z,11.18
2022-08-09T13:17:58.792Z,11.96
2022-08-09T13:20:37.411Z,11.64
2022-08-09T13:24:05.945Z,11.90
2022-08-09T13:25:57.295Z,11.76
2022-08-09T13:28:35.436Z,12.59
2022-08-09T13:32:18.119Z,12.10
2022-08-09T13:33:56.846Z,12.24
2022-08-09T13:36:41.540Z,12.01
2022-08-09T13:41:19.401Z,11.16
2022-08-09T13:42:02.657Z,10.65
2022-08-09T13:44:31.798Z,10.45
2022-08-09T13:47:28.962Z,10.77
2022-08-09T13:49:57.695Z,10.61
2022-08-09T13:52:29.837Z,10.83
2022-08-09T13:55:04.686Z,10.96
2022-08-09T13:57:36.353Z,10.20
2022-08-09T14:00:08.933Z,10.32
2022-08-09T14:02:42.722Z,10.37
2022-08-09T14:06:00.034Z,10.22
2022-08-09T14:08:13.681Z,10.40
2022-08-09T14:10:52.661Z,10.33
2022-08-09T14:14:15.833Z,9.87
2022-08-09T14:16:16.143Z,10.31
2022-08-09T14:18:49.792Z,10.41
2022-08-09T14:21:20.142Z,10.72
2022-08-09T14:23:55.662Z,10.26
2022-08-09T14:26:32.189Z,10.00
2022-08-09T14:29:03.033Z,9.91
2022-08-09T14:31:49.669Z,10.13
2022-08-09T14:34:27.373Z,10.77
2022-08-09T14:37:06.128Z,10.99
2022-08-09T14:39:47.173Z,10.87
2022-08-09T14:42:28.920Z,10.64
2022-08-09T14:46:40.149Z,10.19
2022-08-09T14:47:57.234Z,11.12
2022-08-09T14:50:28.237Z,10.74
2022-08-09T14:52:56.724Z,11.25
2022-08-09T14:55:29.084Z,12.02
2022-08-09T14:58:04.714Z,12.21
2022-08-09T15:00:34.386Z,12.83
2022-08-09T15:03:06.622Z,13.11
2022-08-09T15:05:36.607Z,12.54
2022-08-09T15:08:05.419Z,12.81
2022-08-09T15:10:35.251Z,12.54
2022-08-09T15:13:05.994Z,12.91
2022-08-09T15:15:39.445Z,13.65
2022-08-09T15:18:13.970Z,13.29
2022-08-09T15:22:01.116Z,13.40
2022-08-09T15:24:01.004Z,14.01
2022-08-09T15:26:31.551Z,13.34
2022-08-09T15:29:04.407Z,14.00
2022-08-09T15:31:40.950Z,14.15
2022-08-09T15:34:31.579Z,14.16
2022-08-09T15:36:59.819Z,13.62
2022-08-09T15:39:43.625Z,13.96
2022-08-09T15:42:18.842Z,14.14
2022-08-09T15:44:48.852Z,13.64
2022-08-09T15:47:21.635Z,14.11
2022-08-09T15:50:00.641Z,13.97
2022-08-09T15:52:34.006Z,14.01
2022-08-09T15:55:02.843Z,14.33
2022-08-09T15:57:35.713Z,13.88
2022-08-09T16:00:25.643Z,13.51
2022-08-09T16:02:55.992Z,14.02
2022-08-09T16:05:47.288Z,14.01
2022-08-09T16:08:30.824Z,14.06
2022-08-09T16:11:06.242Z,14.01
2022-08-09T16:14:03.928Z,15.10
2022-08-09T16:16:29.385Z,15.27
2022-08-09T16:18:57.532Z,15.87
2022-08-09T16:21:31.548Z,15.58
2022-08-09T16:24:04.538Z,15.29
2022-08-09T16:26:36.265Z,15.11
2022-08-09T16:29:11.191Z,14.70
2022-08-09T16:32:19.875Z,14.46
2022-08-09T16:34:55.030Z,14.97
2022-08-09T16:37:53.921Z,15.13
2022-08-09T16:40:11.118Z,15.29
2022-08-09T16:42:45.136Z,15.39
2022-08-09T16:45:16.826Z,15.04
2022-08-09T16:48:41.277Z,15.12
2022-08-09T16:50:38.475Z,15.47
2022-08-09T16:53:08.992Z,15.37
2022-08-09T16:55:58.384Z,15.72
2022-08-09T16:58:28.275Z,15.49
2022-08-09T17:01:04.436Z,16.00
2022-08-09T17:03:34.253Z,15.79
2022-08-09T17:06:07.111Z,15.88
2022-08-09T17:08:46.593Z,15.42
2022-08-09T17:11:40.834Z,15.50
2022-08-09T17:14:25.838Z,15.59
2022-08-09T17:17:02.447Z,15.20
2022-08-09T17:19:47.484Z,15.18
2022-08-09T17:22:24.237Z,15.85
2022-08-09T17:25:03.295Z,15.46
2022-08-09T17:27:33.485Z,15.66
2022-08-09T17:30:04.674Z,15.75
2022-08-09T17:32:37.970Z,15.77
2022-08-09T17:35:11.686Z,15.45
2022-08-09T17:38:02.362Z,15.37
2022-08-09T17:40:30.421Z,15.93
2022-08-09T17:43:10.939Z,15.72
2022-08-09T17:46:04.355Z,16.01
2022-08-09T17:48:39.471Z,15.58
2022-08-09T17:51:18.027Z,15.72
2022-08-09T17:53:53.409Z,16.24
2022-08-09T17:56:27.633Z,15.79
2022-08-09T17:58:58.835Z,16.32
2022-08-09T18:01:57.647Z,16.62
2022-08-09T18:04:18.373Z,16.77
2022-08-09T18:06:54.412Z,16.31
2022-08-09T18:09:40.703Z,16.83
2022-08-09T18:12:14.802Z,16.63
2022-08-09T18:14:49.841Z,16.71
2022-08-09T18:17:27.559Z,16.62
2022-08-09T18:20:54.132Z,16.68
2022-08-09T18:22:59.767Z,16.66
2022-08-09T18:25:50.783Z,16.75
2022-08-09T18:30:35.403Z,16.94
2022-08-09T18:31:10.661Z,16.94
2022-08-09T18:33:40.276Z,17.09
2022-08-09T18:36:25.286Z,16.95
2022-08-09T18:39:01.894Z,16.88
2022-08-09T18:41:35.036Z,17.04
2022-08-09T18:44:13.133Z,16.16
2022-08-09T18:46:46.857Z,16.40
2022-08-09T18:49:26.425Z,16.28
2022-08-09T18:51:58.186Z,16.23
2022-08-09T18:54:29.803Z,16.22
2022-08-09T18:57:05.517Z,16.39
2022-08-09T18:59:37.046Z,16.46
2022-08-09T19:02:14.752Z,16.33
2022-08-09T19:04:47.265Z,16.31
2022-08-09T19:07:16.719Z,16.52
2022-08-09T19:10:15.747Z,16.65
2022-08-09T19:12:36.666Z,16.82
2022-08-09T19:15:07.288Z,16.91
2022-08-09T19:17:54.482Z,16.79
2022-08-09T19:20:25.257Z,17.06
2022-08-09T19:22:54.855Z,16.99
2022-08-09T19:25:42.758Z,17.06
2022-08-09T19:28:14.792Z,17.12
2022-08-09T19:30:44.505Z,17.37
2022-08-09T19:33:19.071Z,17.44
2022-08-09T19:35:58.442Z,17.62
2022-08-09T19:38:27.394Z,17.62
2022-08-09T19:41:00.509Z,17.30
2022-08-09T19:44:01.720Z,17.79
2022-08-09T19:46:34.119Z,17.93
2022-08-09T19:50:06.765Z,18.25
2022-08-09T19:51:55.006Z,18.37
2022-08-09T19:54:25.087Z,18.47
2022-08-09T19:56:55.040Z,18.36
2022-08-09T19:59:58.414Z,18.41
2022-08-09T20:04:06.850Z,18.52
2022-08-09T20:05:09.829Z,18.29
2022-08-09T20:07:57.185Z,18.11
2022-08-09T20:10:34.921Z,17.81
2022-08-09T20:13:08.266Z,18.07
2022-08-09T20:16:38.603Z,18.47
2022-08-09T20:18:27.613Z,18.81
2022-08-09T20:20:56.966Z,19.00
2022-08-09T20:23:38.792Z,19.42
2022-08-09T20:26:10.148Z,19.27
2022-08-09T20:28:48.872Z,19.31
2022-08-09T20:31:18.368Z,19.61
2022-08-09T20:33:58.083Z,19.48
2022-08-09T20:36:27.297Z,19.26
2022-08-09T20:39:28.895Z,19.76
2022-08-09T20:41:43.968Z,19.77
2022-08-09T20:44:13.966Z,19.54
2022-08-09T20:46:44.996Z,19.70
2022-08-09T20:49:15.821Z,19.83
2022-08-09T20:51:44.516Z,19.70
2022-08-09T20:54:19.044Z,19.94
2022-08-09T20:56:53.467Z,20.06
2022-08-09T21:00:19.864Z,19.78
2022-08-09T21:02:17.837Z,18.49
2022-08-09T21:05:54.282Z,19.62
2022-08-09T21:07:40.151Z,20.10
2022-08-09T21:10:11.519Z,19.84
2022-08-09T21:12:39.872Z,19.89
2022-08-09T21:15:12.528Z,19.89
2022-08-09T21:18:23.237Z,20.12
2022-08-09T21:20:30.912Z,20.34
2022-08-09T21:23:00.601Z,20.59
2022-08-09T21:25:55.329Z,20.32
2022-08-09T21:28:34.832Z,20.28
2022-08-09T21:31:13.743Z,19.80
2022-08-09T21:33:50.686Z,20.31
2022-08-09T21:36:22.987Z,20.57
2022-08-09T21:38:57.576Z,20.43
2022-08-09T21:42:04.265Z,20.45
2022-08-09T21:44:33.483Z,20.48
2022-08-09T21:47:07.799Z,20.21
2022-08-09T21:49:39.858Z,20.35
2022-08-09T21:52:14.704Z,20.36
2022-08-09T21:54:50.757Z,20.21
2022-08-09T21:57:39.437Z,20.25
2022-08-09T22:00:17.093Z,20.12
2022-08-09T22:02:51.185Z,20.34
2022-08-09T22:05:37.604Z,20.39
2022-08-09T22:08:14.695Z,20.83
2022-08-09T22:11:00.365Z,20.79
2022-08-09T22:13:35.248Z,20.77
2022-08-09T22:16:07.703Z,20.59
2022-08-09T22:18:53.262Z,20.70
2022-08-09T22:21:24.813Z,21.19
2022-08-09T22:23:59.308Z,21.09
2022-08-09T22:26:35.435Z,21.44
2022-08-09T22:29:09.197Z,21.13
2022-08-09T22:31:50.137Z,21.19
2022-08-09T22:34:26.699Z,21.05
2022-08-09T22:36:55.734Z,21.21
2022-08-09T22:39:57.548Z,21.29
2022-08-09T22:42:21.229Z,21.20
2022-08-09T22:48:04.589Z,21.77
2022-08-09T22:48:12.379Z,21.86
2022-08-09T22:50:30.171Z,22.09
2022-08-09T22:52:58.936Z,22.51
2022-08-09T22:55:33.694Z,22.65
2022-08-09T22:58:30.736Z,22.49
2022-08-09T23:01:03.890Z,22.73
2022-08-09T23:04:03.514Z,22.85
2022-08-09T23:06:32.688Z,22.59
2022-08-09T23:09:05.184Z,22.52
2022-08-09T23:11:33.575Z,23.15
2022-08-09T23:14:03.323Z,22.80
2022-08-09T23:16:32.408Z,22.96
2022-08-09T23:19:00.613Z,23.15
2022-08-09T23:21:34.353Z,22.54
2022-08-09T23:24:06.301Z,22.87
2022-08-09T23:26:35.687Z,22.86
2022-08-09T23:29:04.032Z,22.89
2022-08-09T23:31:32.501Z,22.89
2022-08-09T23:34:00.798Z,22.46
2022-08-09T23:36:32.542Z,22.34
2022-08-09T23:39:00.914Z,22.74
2022-08-09T23:41:29.799Z,22.94
2022-08-09T23:43:59.860Z,22.71
2022-08-09T23:46:28.798Z,22.67
2022-08-09T23:48:56.911Z,22.60
2022-08-09T23:51:25.030Z,22.66
2022-08-09T23:54:02.485Z,22.47
2022-08-09T23:56:52.601Z,22.87
2022-08-09T23:59:21.640Z,22.82
